createdAt,value
2022-11-24T00:01:50.339Z,2.95
2022-11-24T00:04:19.911Z,2.85
2022-11-24T00:06:49.510Z,3.70
2022-11-24T00:09:19.158Z,3.20
2022-11-24T00:11:48.867Z,3.45
2022-11-24T00:14:18.520Z,3.30
2022-11-24T00:16:48.160Z,3.13
2022-11-24T00:19:19.945Z,3.35
2022-11-24T00:21:49.783Z,2.72
2022-11-24T00:24:19.446Z,3.60
2022-11-24T00:26:48.989Z,3.25
2022-11-24T00:29:18.751Z,3.58
2022-11-24T00:31:48.348Z,3.92
2022-11-24T00:34:18.081Z,4.40
2022-11-24T00:36:47.853Z,3.92
2022-11-24T00:39:21.314Z,3.45
2022-11-24T00:41:50.944Z,2.70
2022-11-24T00:44:20.546Z,3.13
2022-11-24T00:46:50.308Z,2.40
2022-11-24T00:49:19.982Z,2.38
2022-11-24T00:51:49.554Z,2.83
2022-11-24T00:54:19.888Z,2.30
2022-11-24T00:56:50.091Z,2.15
2022-11-24T00:59:19.809Z,1.90
2022-11-24T01:01:49.535Z,1.60
2022-11-24T01:04:19.710Z,1.70
2022-11-24T01:06:49.197Z,1.75
2022-11-24T01:09:18.740Z,1.83
2022-11-24T01:12:07.975Z,1.70
2022-11-24T01:14:37.533Z,1.70
2022-11-24T01:17:07.121Z,1.70
2022-11-24T01:19:36.821Z,2.35
2022-11-24T01:22:06.612Z,1.80
2022-11-24T01:24:36.393Z,1.58
2022-11-24T01:27:06.103Z,1.83
2022-11-24T01:29:35.991Z,1.65
2022-11-24T01:32:05.662Z,1.80
2022-11-24T01:34:35.572Z,1.67
2022-11-24T01:37:06.531Z,1.42
2022-11-24T01:39:36.356Z,1.38
2022-11-24T01:42:05.992Z,1.65
2022-11-24T01:44:36.005Z,1.67
2022-11-24T01:47:35.924Z,1.50
2022-11-24T01:50:06.948Z,1.70
2022-11-24T01:52:44.178Z,1.55
2022-11-24T01:55:24.499Z,1.77
2022-11-24T01:58:12.122Z,1.92
2022-11-24T02:00:46.202Z,1.98
2022-11-24T02:03:20.271Z,2.00
2022-11-24T02:06:05.544Z,2.10
2022-11-24T02:08:49.365Z,2.15
2022-11-24T02:11:18.998Z,2.03
2022-11-24T02:13:49.973Z,1.75
2022-11-24T02:16:19.724Z,1.77
2022-11-24T02:18:49.447Z,1.70
2022-11-24T02:21:20.033Z,2.00
2022-11-24T02:24:13.718Z,1.65
2022-11-24T02:26:49.463Z,1.92
2022-11-24T02:29:19.581Z,1.92
2022-11-24T02:32:01.766Z,2.00
2022-11-24T02:34:31.496Z,1.88
2022-11-24T02:37:02.400Z,2.05
2022-11-24T02:39:32.371Z,2.45
2022-11-24T02:42:08.179Z,2.13
2022-11-24T02:44:44.420Z,2.10
2022-11-24T02:47:15.669Z,1.90
2022-11-24T02:49:45.577Z,1.50
2022-11-24T02:52:15.653Z,1.90
2022-11-24T02:54:45.645Z,1.55
2022-11-24T02:57:15.666Z,1.70
2022-11-24T02:59:45.654Z,2.35
2022-11-24T03:02:15.527Z,1.77
2022-11-24T03:04:46.342Z,1.90
2022-11-24T03:07:16.485Z,2.10
2022-11-24T03:09:46.391Z,2.35
2022-11-24T03:12:16.440Z,1.60
2022-11-24T03:14:46.309Z,1.80
2022-11-24T03:17:16.262Z,1.98
2022-11-24T03:19:46.188Z,2.58
2022-11-24T03:22:16.704Z,1.70
2022-11-24T03:24:46.583Z,2.20
2022-11-24T03:27:16.498Z,2.35
2022-11-24T03:29:46.358Z,1.90
2022-11-24T03:32:16.196Z,2.15
2022-11-24T03:34:46.138Z,1.90
2022-11-24T03:37:17.139Z,2.00
2022-11-24T03:39:47.047Z,1.70
2022-11-24T03:42:17.148Z,2.03
2022-11-24T03:44:47.079Z,2.15
2022-11-24T03:47:17.065Z,2.95
2022-11-24T03:49:47.527Z,2.75
2022-11-24T03:52:17.448Z,2.60
2022-11-24T03:54:49.493Z,2.53
2022-11-24T03:57:19.336Z,2.33
2022-11-24T03:59:49.356Z,2.15
2022-11-24T04:02:19.471Z,2.63
2022-11-24T04:04:52.301Z,2.83
2022-11-24T04:07:22.340Z,2.55
2022-11-24T04:09:52.412Z,2.85
2022-11-24T04:12:41.909Z,2.78
2022-11-24T04:15:13.137Z,2.97
2022-11-24T04:17:43.562Z,2.35
2022-11-24T04:20:14.886Z,2.70
2022-11-24T04:22:44.990Z,2.55
2022-11-24T04:25:15.033Z,2.63
2022-11-24T04:27:44.927Z,3.05
2022-11-24T04:30:15.043Z,2.72
2022-11-24T04:32:44.862Z,2.80
2022-11-24T04:35:14.974Z,3.25
2022-11-24T04:37:46.102Z,3.13
2022-11-24T04:40:16.728Z,2.92
2022-11-24T04:42:53.798Z,3.03
2022-11-24T04:45:24.726Z,2.60
2022-11-24T04:47:54.831Z,3.72
2022-11-24T04:50:24.860Z,4.28
2022-11-24T04:52:54.795Z,3.70
2022-11-24T04:55:24.824Z,3.45
2022-11-24T04:57:54.614Z,3.67
2022-11-24T05:00:24.580Z,3.60
2022-11-24T05:02:54.449Z,3.58
2022-11-24T05:05:24.467Z,3.53
2022-11-24T05:07:54.479Z,3.80
2022-11-24T05:10:44.021Z,3.80
2022-11-24T05:13:15.347Z,3.30
2022-11-24T05:15:45.315Z,2.60
2022-11-24T05:18:18.293Z,2.30
2022-11-24T05:20:48.228Z,1.95
2022-11-24T05:23:18.560Z,2.00
2022-11-24T05:25:48.513Z,2.10
2022-11-24T05:28:18.658Z,2.13
2022-11-24T05:30:48.878Z,2.40
2022-11-24T05:33:20.787Z,1.70
2022-11-24T05:35:51.547Z,1.85
2022-11-24T05:38:22.841Z,2.17
2022-11-24T05:40:52.426Z,1.73
2022-11-24T05:43:22.085Z,2.08
2022-11-24T05:45:51.676Z,2.00
2022-11-24T05:48:21.306Z,1.73
2022-11-24T05:50:57.331Z,1.90
2022-11-24T05:53:28.587Z,2.35
2022-11-24T05:55:58.193Z,2.22
2022-11-24T05:58:27.747Z,2.72
2022-11-24T06:00:57.347Z,2.47
2022-11-24T06:03:26.877Z,2.20
2022-11-24T06:05:56.468Z,1.92
2022-11-24T06:08:30.873Z,2.65
2022-11-24T06:11:24.044Z,2.40
2022-11-24T06:13:53.655Z,2.67
2022-11-24T06:16:23.677Z,2.08
2022-11-24T06:18:53.384Z,2.40
2022-11-24T06:21:23.010Z,2.25
2022-11-24T06:23:52.564Z,2.33
2022-11-24T06:26:22.220Z,1.80
2022-11-24T06:28:51.796Z,1.65
2022-11-24T06:31:21.584Z,1.85
2022-11-24T06:33:51.191Z,1.38
2022-11-24T06:36:20.776Z,2.03
2022-11-24T06:38:51.505Z,1.83
2022-11-24T06:41:21.640Z,1.67
2022-11-24T06:43:51.201Z,1.60
2022-11-24T06:46:20.910Z,1.75
2022-11-24T06:48:53.765Z,1.90
2022-11-24T06:51:23.441Z,1.58
2022-11-24T06:53:53.144Z,1.65
2022-11-24T06:56:23.775Z,1.90
2022-11-24T06:58:55.064Z,1.50
2022-11-24T07:01:28.589Z,1.65
2022-11-24T07:03:59.337Z,1.55
2022-11-24T07:06:30.122Z,1.67
2022-11-24T07:08:59.699Z,1.58
2022-11-24T07:11:29.587Z,1.63
2022-11-24T07:14:00.579Z,1.52
2022-11-24T07:16:30.898Z,1.20
2022-11-24T07:19:01.014Z,1.52
2022-11-24T07:21:32.388Z,1.60
2022-11-24T07:24:02.016Z,1.88
2022-11-24T07:26:31.574Z,1.60
2022-11-24T07:29:01.109Z,1.45
2022-11-24T07:31:30.653Z,1.48
2022-11-24T07:34:00.420Z,1.30
2022-11-24T07:36:30.091Z,2.22
2022-11-24T07:39:01.305Z,1.65
2022-11-24T07:41:31.401Z,1.50
2022-11-24T07:44:01.344Z,1.35
2022-11-24T07:46:31.349Z,1.30
2022-11-24T07:49:01.260Z,1.50
2022-11-24T07:51:31.208Z,1.42
2022-11-24T07:54:01.209Z,1.25
2022-11-24T07:56:32.590Z,1.48
2022-11-24T07:59:03.026Z,1.73
2022-11-24T08:01:33.160Z,1.30
2022-11-24T08:04:04.444Z,1.00
2022-11-24T08:06:39.838Z,0.85
2022-11-24T08:09:13.204Z,0.90
2022-11-24T08:11:43.198Z,1.20
2022-11-24T08:14:13.104Z,0.90
2022-11-24T08:16:43.087Z,1.10
2022-11-24T08:19:13.689Z,1.30
2022-11-24T08:21:43.587Z,1.08
2022-11-24T08:24:15.592Z,1.17
2022-11-24T08:26:46.044Z,1.02
2022-11-24T08:29:15.945Z,1.40
2022-11-24T08:31:45.872Z,1.00
2022-11-24T08:34:18.800Z,0.82
2022-11-24T08:36:48.672Z,0.90
2022-11-24T08:39:19.615Z,1.00
2022-11-24T08:41:49.215Z,0.93
2022-11-24T08:44:19.912Z,0.93
2022-11-24T08:46:49.606Z,0.98
2022-11-24T08:49:20.625Z,1.05
2022-11-24T08:51:51.730Z,0.95
2022-11-24T08:54:21.346Z,1.20
2022-11-24T08:56:52.081Z,1.20
2022-11-24T08:59:21.809Z,1.40
2022-11-24T09:01:51.508Z,0.98
2022-11-24T09:04:21.233Z,1.55
2022-11-24T09:06:50.826Z,1.08
2022-11-24T09:09:20.824Z,1.10
2022-11-24T09:11:50.425Z,1.00
2022-11-24T09:14:19.906Z,0.93
2022-11-24T09:16:49.579Z,1.30
2022-11-24T09:19:19.136Z,1.00
2022-11-24T09:21:48.703Z,1.40
2022-11-24T09:24:18.257Z,1.10
2022-11-24T09:26:48.043Z,0.95
2022-11-24T09:29:18.001Z,1.00
2022-11-24T09:31:47.674Z,1.05
2022-11-24T09:34:18.543Z,1.20
2022-11-24T09:36:48.083Z,1.00
2022-11-24T09:39:18.454Z,1.40
2022-11-24T09:42:16.660Z,1.05
2022-11-24T09:45:13.605Z,1.02
2022-11-24T09:48:09.456Z,1.20
2022-11-24T09:50:42.319Z,1.23
2022-11-24T09:53:23.435Z,1.20
2022-11-24T09:55:59.064Z,1.02
2022-11-24T09:59:05.312Z,1.35
2022-11-24T10:01:41.579Z,1.25
2022-11-24T10:04:37.413Z,1.10
2022-11-24T10:07:36.232Z,1.17
2022-11-24T10:10:27.093Z,1.10
2022-11-24T10:13:27.572Z,0.88
2022-11-24T10:16:10.219Z,1.10
2022-11-24T10:19:14.879Z,1.45
2022-11-24T10:22:09.666Z,0.82
2022-11-24T10:25:20.091Z,1.08
2022-11-24T10:28:01.661Z,1.10
2022-11-24T10:30:32.539Z,1.75
2022-11-24T10:33:30.971Z,1.13
2022-11-24T10:36:11.608Z,1.50
2022-11-24T10:38:56.596Z,1.10
2022-11-24T10:41:48.801Z,1.00
2022-11-24T10:44:18.732Z,1.00
2022-11-24T10:46:48.719Z,1.15
2022-11-24T10:49:27.445Z,0.88
2022-11-24T10:52:15.471Z,1.00
2022-11-24T10:55:06.146Z,1.13
2022-11-24T10:57:38.239Z,1.40
2022-11-24T11:00:32.267Z,1.25
2022-11-24T11:03:23.127Z,1.60
2022-11-24T11:05:58.601Z,1.30
2022-11-24T11:08:31.879Z,1.20
2022-11-24T11:11:23.239Z,1.35
2022-11-24T11:14:04.833Z,1.90
2022-11-24T11:16:53.945Z,2.75
2022-11-24T11:19:49.791Z,2.33
2022-11-24T11:22:34.080Z,3.60
2022-11-24T11:25:26.478Z,2.50
2022-11-24T11:28:33.039Z,2.53
2022-11-24T11:31:24.529Z,2.92
2022-11-24T11:34:04.784Z,2.80
2022-11-24T11:36:36.495Z,2.95
2022-11-24T11:39:07.953Z,2.67
2022-11-24T11:41:44.210Z,3.90
2022-11-24T11:44:52.877Z,2.65
2022-11-24T11:47:38.061Z,3.15
2022-11-24T11:50:16.263Z,2.30
2022-11-24T11:53:25.175Z,2.70
2022-11-24T11:56:34.011Z,3.08
2022-11-24T11:59:30.693Z,3.33
2022-11-24T12:02:35.219Z,3.10
2022-11-24T12:05:33.412Z,3.33
2022-11-24T12:08:55.955Z,3.63
2022-11-24T12:11:45.854Z,3.55
2022-11-24T12:14:31.552Z,3.60
2022-11-24T12:17:31.803Z,3.92
2022-11-24T12:20:26.300Z,3.72
2022-11-24T12:23:35.022Z,3.85
2022-11-24T12:26:43.367Z,3.50
2022-11-24T12:29:48.921Z,3.13
2022-11-24T12:32:51.128Z,3.22
2022-11-24T12:35:48.555Z,3.20
2022-11-24T12:38:48.159Z,3.08
2022-11-24T12:41:56.871Z,3.45
2022-11-24T12:44:53.379Z,3.42
2022-11-24T12:47:55.485Z,2.83
2022-11-24T12:50:31.333Z,3.97
2022-11-24T12:53:24.921Z,3.92
2022-11-24T12:55:56.362Z,4.00
2022-11-24T12:59:00.465Z,3.88
2022-11-24T13:01:56.098Z,3.50
2022-11-24T13:05:04.890Z,4.78
2022-11-24T13:07:59.475Z,3.80
2022-11-24T13:10:54.818Z,4.35
2022-11-24T13:13:28.698Z,4.00
2022-11-24T13:19:11.891Z,4.38
2022-11-24T13:22:02.763Z,4.10
2022-11-24T13:24:35.983Z,4.00
2022-11-24T13:27:29.328Z,4.40
2022-11-24T13:29:58.983Z,3.55
2022-11-24T13:32:48.887Z,3.63
2022-11-24T13:35:19.244Z,3.75
2022-11-24T13:37:53.105Z,4.05
2022-11-24T13:40:54.148Z,3.67
2022-11-24T13:43:29.703Z,4.07
2022-11-24T13:45:59.345Z,4.90
2022-11-24T13:49:00.499Z,3.58
2022-11-24T13:51:30.192Z,3.72
2022-11-24T13:54:02.473Z,3.85
2022-11-24T13:56:33.327Z,4.00
2022-11-24T13:59:17.472Z,3.40
2022-11-24T14:01:48.509Z,3.58
2022-11-24T14:04:31.460Z,3.40
2022-11-24T14:07:09.074Z,3.22
2022-11-24T14:09:53.091Z,3.40
2022-11-24T14:12:24.961Z,3.20
2022-11-24T14:14:59.296Z,3.17
2022-11-24T14:17:30.030Z,3.38
2022-11-24T14:20:00.718Z,3.00
2022-11-24T14:22:49.773Z,3.03
2022-11-24T14:25:38.928Z,3.67
2022-11-24T14:28:29.504Z,3.28
2022-11-24T14:31:24.150Z,3.78
2022-11-24T14:34:16.834Z,2.92
2022-11-24T14:36:48.522Z,2.60
2022-11-24T14:39:21.711Z,2.95
2022-11-24T14:42:06.182Z,3.17
2022-11-24T14:45:00.612Z,3.15
2022-11-24T14:47:33.421Z,2.97
2022-11-24T14:50:24.658Z,3.03
2022-11-24T14:52:59.903Z,3.13
2022-11-24T14:55:36.931Z,3.28
2022-11-24T14:58:29.589Z,3.60
2022-11-24T15:01:31.560Z,3.97
2022-11-24T15:07:33.127Z,3.53
2022-11-24T15:10:04.532Z,3.72
2022-11-24T15:12:54.780Z,4.72
2022-11-24T15:15:31.759Z,3.50
2022-11-24T15:18:03.855Z,3.10
2022-11-24T15:20:37.452Z,3.92
2022-11-24T15:23:28.198Z,3.22
2022-11-24T15:26:33.080Z,3.00
2022-11-24T15:29:05.287Z,3.47
2022-11-24T15:31:35.395Z,2.80
2022-11-24T15:34:05.334Z,3.63
2022-11-24T15:36:35.250Z,2.72
2022-11-24T15:39:05.781Z,3.78
2022-11-24T15:41:36.438Z,3.33
2022-11-24T15:44:06.579Z,3.42
2022-11-24T15:46:39.451Z,3.70
2022-11-24T15:49:09.317Z,3.90
2022-11-24T15:51:43.689Z,3.42
2022-11-24T15:54:20.518Z,2.90
2022-11-24T15:56:50.123Z,3.30
2022-11-24T15:59:21.283Z,3.13
2022-11-24T16:01:52.212Z,3.03
2022-11-24T16:04:21.872Z,2.80
2022-11-24T16:06:51.471Z,3.30
2022-11-24T16:09:21.038Z,3.10
2022-11-24T16:11:50.558Z,3.35
2022-11-24T16:14:20.558Z,4.97
2022-11-24T16:16:50.352Z,4.20
2022-11-24T16:19:20.032Z,4.15
2022-11-24T16:21:52.831Z,3.25
2022-11-24T16:24:22.404Z,2.78
2022-11-24T16:26:51.979Z,3.10
2022-11-24T16:29:22.703Z,3.13
2022-11-24T16:31:54.195Z,3.25
2022-11-24T16:34:23.942Z,3.08
2022-11-24T16:36:55.016Z,3.55
2022-11-24T16:39:24.596Z,3.40
2022-11-24T16:41:54.184Z,2.80
2022-11-24T16:44:23.825Z,3.00
2022-11-24T16:46:59.085Z,2.50
2022-11-24T16:49:28.701Z,2.72
2022-11-24T16:51:58.367Z,2.92
2022-11-24T16:54:28.046Z,3.10
2022-11-24T16:56:57.884Z,2.90
2022-11-24T16:59:27.961Z,3.08
2022-11-24T17:01:57.590Z,3.20
2022-11-24T17:04:27.173Z,2.33
2022-11-24T17:06:56.853Z,2.88
2022-11-24T17:09:26.684Z,3.00
2022-11-24T17:11:56.213Z,2.40
2022-11-24T17:14:25.986Z,2.85
2022-11-24T17:16:55.600Z,2.10
2022-11-24T17:19:25.843Z,2.72
2022-11-24T17:21:56.419Z,2.53
2022-11-24T17:24:26.043Z,2.85
2022-11-24T17:26:55.690Z,3.20
2022-11-24T17:29:26.246Z,2.60
2022-11-24T17:31:55.911Z,3.22
2022-11-24T17:34:25.428Z,2.22
2022-11-24T17:36:56.907Z,2.38
2022-11-24T17:39:28.310Z,2.65
2022-11-24T17:41:58.235Z,3.00
2022-11-24T17:44:28.647Z,2.00
2022-11-24T17:47:00.511Z,2.80
2022-11-24T17:49:30.455Z,2.15
2022-11-24T17:52:00.385Z,2.22
2022-11-24T17:54:46.699Z,2.50
2022-11-24T17:57:20.132Z,2.70
2022-11-24T17:59:50.069Z,3.22
2022-11-24T18:02:20.181Z,2.63
2022-11-24T18:04:50.193Z,2.50
2022-11-24T18:07:20.195Z,1.83
2022-11-24T18:09:50.180Z,2.35
2022-11-24T18:12:20.011Z,2.63
2022-11-24T18:14:50.000Z,2.33
2022-11-24T18:17:19.846Z,2.30
2022-11-24T18:19:49.737Z,2.72
2022-11-24T18:22:36.679Z,2.92
2022-11-24T18:25:10.117Z,2.30
2022-11-24T18:27:40.009Z,2.22
2022-11-24T18:30:10.473Z,2.33
2022-11-24T18:32:40.395Z,2.53
2022-11-24T18:35:10.770Z,2.42
2022-11-24T18:37:45.783Z,2.40
2022-11-24T18:40:15.474Z,2.42
2022-11-24T18:42:45.091Z,2.45
2022-11-24T18:45:14.814Z,2.10
2022-11-24T18:47:44.357Z,2.50
2022-11-24T18:50:14.156Z,2.92
2022-11-24T18:52:43.724Z,2.30
2022-11-24T18:55:13.377Z,2.20
2022-11-24T18:57:43.070Z,2.22
2022-11-24T19:00:13.278Z,2.33
2022-11-24T19:02:42.845Z,2.28
2022-11-24T19:05:12.545Z,2.42
2022-11-24T19:07:42.150Z,2.47
2022-11-24T19:10:12.911Z,2.00
2022-11-24T19:12:42.476Z,2.40
2022-11-24T19:15:12.316Z,1.92
2022-11-24T19:17:41.876Z,2.50
2022-11-24T19:20:11.785Z,2.53
2022-11-24T19:22:41.351Z,2.20
2022-11-24T19:25:11.385Z,2.13
2022-11-24T19:27:41.288Z,2.50
2022-11-24T19:30:11.635Z,2.80
2022-11-24T19:32:41.234Z,2.63
2022-11-24T19:35:10.970Z,3.00
2022-11-24T19:37:41.942Z,2.85
2022-11-24T19:40:11.981Z,2.65
2022-11-24T19:42:41.692Z,3.08
2022-11-24T19:45:11.709Z,2.63
2022-11-24T19:47:41.253Z,2.55
2022-11-24T19:50:11.033Z,2.78
2022-11-24T19:52:40.640Z,2.45
2022-11-24T19:55:10.618Z,3.58
2022-11-24T19:57:40.172Z,2.45
2022-11-24T20:00:11.301Z,2.67
2022-11-24T20:02:40.916Z,2.72
2022-11-24T20:05:10.749Z,2.63
2022-11-24T20:07:40.333Z,2.80
2022-11-24T20:10:10.584Z,2.60
2022-11-24T20:12:40.149Z,2.72
2022-11-24T20:15:10.487Z,2.72
2022-11-24T20:17:40.102Z,2.60
2022-11-24T20:20:10.000Z,2.63
2022-11-24T20:22:39.633Z,4.18
2022-11-24T20:25:09.790Z,3.65
2022-11-24T20:27:39.398Z,3.85
2022-11-24T20:30:09.774Z,3.25
2022-11-24T20:32:39.322Z,3.60
2022-11-24T20:35:13.531Z,3.45
2022-11-24T20:37:47.945Z,3.50
2022-11-24T20:40:17.953Z,3.70
2022-11-24T20:42:47.912Z,3.97
2022-11-24T20:45:17.947Z,3.47
2022-11-24T20:47:47.853Z,4.57
2022-11-24T20:50:17.807Z,3.47
2022-11-24T20:52:47.731Z,3.70
2022-11-24T20:55:17.635Z,3.28
2022-11-24T20:57:47.567Z,3.92
2022-11-24T21:00:17.803Z,3.53
2022-11-24T21:02:47.839Z,3.55
2022-11-24T21:05:17.793Z,3.30
2022-11-24T21:07:47.986Z,2.90
2022-11-24T21:10:18.002Z,2.90
2022-11-24T21:12:47.990Z,2.85
2022-11-24T21:15:17.869Z,2.95
2022-11-24T21:17:47.764Z,2.95
2022-11-24T21:20:17.660Z,2.78
2022-11-24T21:22:47.595Z,2.55
2022-11-24T21:25:17.631Z,2.63
2022-11-24T21:27:47.612Z,2.70
2022-11-24T21:30:17.808Z,2.60
2022-11-24T21:32:48.219Z,2.55
2022-11-24T21:35:18.175Z,2.55
2022-11-24T21:37:49.090Z,2.80
2022-11-24T21:40:18.846Z,2.75
2022-11-24T21:42:48.571Z,3.00
2022-11-24T21:45:18.282Z,3.50
2022-11-24T21:47:48.998Z,2.80
2022-11-24T21:50:19.069Z,3.50
2022-11-24T21:52:48.748Z,4.07
2022-11-24T21:55:18.528Z,4.43
2022-11-24T21:57:48.264Z,3.40
2022-11-24T22:00:18.310Z,3.88
2022-11-24T22:02:48.085Z,3.75
2022-11-24T22:05:17.879Z,3.83
2022-11-24T22:07:47.558Z,4.20
2022-11-24T22:10:17.343Z,4.47
2022-11-24T22:12:46.994Z,4.38
2022-11-24T22:15:16.593Z,4.57
2022-11-24T22:17:46.157Z,4.43
2022-11-24T22:20:15.918Z,4.13
2022-11-24T22:22:45.523Z,4.60
2022-11-24T22:25:15.172Z,4.18
2022-11-24T22:27:44.822Z,3.90
2022-11-24T22:30:14.753Z,4.97
2022-11-24T22:32:44.463Z,4.28
2022-11-24T22:35:14.038Z,4.30
2022-11-24T22:37:43.574Z,4.88
2022-11-24T22:40:14.596Z,4.88
2022-11-24T22:42:44.251Z,4.65
2022-11-24T22:45:14.242Z,4.88
2022-11-24T22:47:44.145Z,5.35
2022-11-24T22:50:14.683Z,4.63
2022-11-24T22:52:44.595Z,4.15
2022-11-24T22:55:14.504Z,4.05
2022-11-24T22:57:48.157Z,5.20
2022-11-24T23:00:19.232Z,4.15
2022-11-24T23:02:49.174Z,4.50
2022-11-24T23:05:20.850Z,4.88
2022-11-24T23:07:50.981Z,4.78
2022-11-24T23:10:21.191Z,4.82
2022-11-24T23:12:51.665Z,4.53
2022-11-24T23:15:21.629Z,4.38
2022-11-24T23:17:51.544Z,4.97
2022-11-24T23:20:21.457Z,4.78
2022-11-24T23:22:51.530Z,5.38
2022-11-24T23:25:21.442Z,4.80
2022-11-24T23:27:51.396Z,4.90
2022-11-24T23:30:21.574Z,5.43
2022-11-24T23:32:51.482Z,4.50
2022-11-24T23:35:21.705Z,5.20
2022-11-24T23:38:06.981Z,4.60
2022-11-24T23:40:38.414Z,4.70
2022-11-24T23:43:08.037Z,4.82
2022-11-24T23:45:37.647Z,4.75
2022-11-24T23:48:10.173Z,4.63
2022-11-24T23:50:39.903Z,5.18
2022-11-24T23:53:09.530Z,5.25
2022-11-24T23:55:39.248Z,5.63
2022-11-24T23:58:08.902Z,6.05
